Latest Coastal Weather Observations for Cape Otway

IDT60701

Issued at 4:52 am EST Saturday 27 May 2017 (issued every 10 minutes, with the page automatically refreshed every 10 minutes)

About coastal observations | Map of coastal stations | Coastal observations for TAS | Marine services | Other Formats
Station Details ID: 090015 Name: CAPE OTWAY LIGHTHOUSE Lat: -38.86 Lon: 143.51 Height: 82.0 m
Data from the previous 72 hours. | See also: Recent months at Cape Otway
Date/Time
EST
Temp
°C
Wind Pressure Rain since
9am
mm
Weather Cloud Vis
km
Sea
Height
m
Swell
Dir  Spd
kts
Gust
kts
hPa Trend Height
m
Period
s
Dir
27/04:30am 14.0 N 16 22 1014.2 - 0.0 - - - - - - -
27/04:00am 14.0 N 14 20 1014.8 - 0.0 - - - - - - -
27/03:30am 13.8 N 14 22 1015.1 - 0.0 - - - - - - -
27/03:00am 13.7 N 16 22 1015.4 - 0.0 - - - - - - -
27/02:30am 13.4 N 15 22 1015.6 - 0.0 - - - - - - -
27/02:00am 13.0 N 14 22 1015.8 - 0.0 - - - - - - -
27/01:30am 12.8 N 12 18 1016.1 - 0.0 - - - - - - -
27/01:00am 12.7 N 12 17 1016.6 - 0.0 - - - - - - -
27/12:30am 12.0 N 9 15 1017.0 - 0.0 - - - - - - -
27/12:00am 11.7 NNE 11 14 1017.3 - 0.0 - - - - - - -
 
Date/Time
EST
Temp
°C
Wind Pressure Rain since
9am
mm
Weather Cloud Vis
km
Sea
Height
m
Swell
Dir  Spd
kts
Gust
kts
hPa Trend Height
m
Period
s
Dir
26/11:30pm 11.5 NNE 9 12 1017.5 - 0.0 - - - - - - -
26/11:00pm 10.7 N 8 10 1017.8 - 0.0 - - - - - - -
26/10:30pm 10.7 NNE 7 10 1018.2 - 0.0 - - - - - - -
26/10:00pm 10.7 N 6 10 1018.7 - 0.0 - - - - - - -
26/09:30pm 9.9 N 6 7 1018.9 - 0.0 - - - - - - -
26/09:00pm 10.2 NNE 7 8 1019.0 - 0.0 - - - - - - -
26/08:30pm 9.8 NNE 7 8 1019.0 - 0.0 - - - - - - -
26/08:00pm 8.8 NNE 7 8 1019.0 - 0.0 - - - - - - -
26/07:30pm 8.4 N 7 7 1019.1 - 0.0 - - - - - - -
26/07:00pm 9.1 N 6 7 1019.2 - 0.0 - - - - - - -
26/06:30pm 10.0 NNE 7 9 1019.3 - 0.0 - - - - - - -
26/06:00pm 10.3 NNE 7 8 1019.4 - 0.0 - - - - - - -
26/05:30pm 11.0 N 6 8 1019.5 - 0.0 - - - - - - -
26/05:00pm 11.5 NNE 6 7 1019.2 - 0.0 - - - - - - -
26/04:30pm 12.3 N 4 5 1019.2 - 0.0 - - - - - - -
26/04:00pm 13.4 N 3 5 1019.3 - 0.0 - - - - - - -
26/03:30pm 14.2 NW 6 8 1019.4 - 0.0 - - - - - - -
26/03:00pm 14.2 NW 4 8 1019.7 - 0.0 - - - - - - -
26/02:30pm 14.0 NW 5 8 1019.9 - 0.0 - - - - - - -
26/02:00pm 13.8 WNW 5 9 1020.2 - 0.0 - - - - - - -
26/01:30pm 13.8 W 5 8 1020.5 - 0.0 - - - - - - -
26/01:00pm 14.0 WNW 5 9 1020.9 - 0.0 - - - - - - -
26/12:30pm 14.0 NW 6 10 1021.1 - 0.0 - - - - - - -
26/12:00pm 13.7 WNW 5 9 1021.5 - 0.0 - - - - - - -
26/11:30am 13.6 WNW 5 8 1022.1 - 0.0 - - - - - - -
26/11:00am 13.7 WNW 5 7 1022.4 - 0.0 - - - - - - -
26/10:30am 13.5 WNW 5 7 1022.4 - 0.0 - - - - - - -
26/10:00am 12.7 NW 5 6 1022.3 - 0.0 - - - - - - -
26/09:30am 12.4 NNW 5 6 1022.3 - 0.0 - - - - - - -
26/09:00am 11.8 N 6 8 1022.2 - 1.6 - - - - - - -
26/08:30am 11.4 NNW 6 8 1022.0 - 1.6 - - - - - - -
26/08:00am 11.1 NNW 6 7 1021.9 - 1.6 - - - - - - -
26/07:30am 11.0 NNW 7 9 1021.5 - 1.6 - - - - - - -
26/07:00am 11.1 NNW 8 11 1021.2 - 1.6 - - - - - - -
26/06:30am 13.1 WSW 7 11 1020.9 - 1.6 - - - - - - -
26/06:00am 12.9 W 9 12 1020.7 - 1.6 - - - - - - -
26/05:30am 12.8 WSW 11 16 1020.4 - 1.6 - - - - - - -
26/05:00am 12.9 WSW 11 17 1020.2 - 1.6 - - - - - - -
26/04:30am 13.0 WSW 11 16 1019.9 - 1.6 - - - - - - -
26/04:00am 13.1 WSW 11 16 1019.9 - 1.6 - - - - - - -
26/03:30am 13.1 WSW 11 15 1019.7 - 1.6 - - - - - - -
26/03:00am 13.1 W 11 16 1019.5 - 1.6 - - - - - - -
26/02:30am 13.1 WSW 10 15 1019.6 - 1.6 - - - - - - -
26/02:00am 13.1 SW 10 16 1019.5 - 1.6 - - - - - - -
26/01:30am 13.3 WSW 12 16 1019.5 - 1.6 - - - - - - -
26/01:00am 13.2 WSW 11 16 1019.6 - 1.6 - - - - - - -
26/12:30am 13.5 WSW 15 20 1019.5 - 1.6 - - - - - - -
26/12:00am 13.6 SW 16 21 1019.5 - 1.6 - - - - - - -
 
Date/Time
EST
Temp
°C
Wind Pressure Rain since
9am
mm
Weather Cloud Vis
km
Sea
Height
m
Swell
Dir  Spd
kts
Gust
kts
hPa Trend Height
m
Period
s
Dir
25/11:30pm 13.7 SW 13 17 1019.2 - 1.6 - - - - - - -
25/11:00pm 13.6 SW 17 21 1019.1 - 1.6 - - - - - - -
25/10:30pm 13.4 SW 14 20 1018.9 - 1.6 - - - - - - -
25/10:00pm 13.1 WNW 8 10 1018.7 - 1.6 - - - - - - -
25/09:30pm 13.6 W 10 14 1018.7 - 1.6 - - - - - - -
25/09:00pm 13.9 WSW 12 16 1018.3 - 1.6 - - - - - - -
25/08:30pm 14.0 WSW 13 17 1017.9 - 1.6 - - - - - - -
25/08:00pm 13.9 W 12 16 1017.6 - 1.6 - - - - - - -
25/07:30pm 13.4 W 14 19 1017.7 - 1.4 - - - - - - -
25/07:00pm 13.7 W 15 24 1017.3 - 1.4 - - - - - - -
25/06:40pm 14.7 WNW 15 25 1017.0 - 0.8 - - - - - - -
25/06:30pm 14.7 WNW 15 23 1016.8 - 0.8 - - - - - - -
25/06:00pm 14.8 WNW 11 17 1016.5 - 0.0 - - - - - - -
25/05:30pm 14.8 WNW 13 19 1016.3 - 0.0 - - - - - - -
25/05:01pm 15.0 WNW 15 25 1016.1 - 0.0 - - - - - - -
25/05:00pm 15.0 WNW 16 25 1016.1 - 0.0 - - - - - - -
25/04:30pm 15.5 WNW 19 27 1016.0 - 0.0 - - - - - - -
25/04:00pm 15.6 WNW 17 25 1016.0 - 0.0 - - - - - - -
25/03:30pm 15.4 NW 15 23 1015.9 - 0.0 - - - - - - -
25/03:00pm 15.4 NW 15 25 1015.8 - 0.0 - - - - - - -
25/02:31pm 15.7 NW 15 26 1015.9 - 0.0 - - - - - - -
25/02:30pm 15.8 NW 14 21 1015.9 - 0.0 - - - - - - -
25/02:14pm 15.9 NW 15 27 1015.9 - 0.0 - - - - - - -
25/02:00pm 15.9 NW 14 24 1016.0 - 0.0 - - - - - - -
25/01:30pm 16.3 NW 15 27 1016.0 - 0.0 - - - - - - -
25/01:00pm 16.3 NW 12 19 1016.2 - 0.0 - - - - - - -
25/12:30pm 16.1 NW 13 20 1016.7 - 0.0 - - - - - - -
25/12:00pm 16.0 NW 13 22 1017.0 - 0.0 - - - - - - -
25/11:30am 15.2 NW 14 23 1017.7 - 0.0 - - - - - - -
25/11:00am 15.3 NNW 14 23 1017.9 - 0.0 - - - - - - -
25/10:30am 14.7 NNW 16 25 1017.9 - 0.0 - - - - - - -
25/10:22am 14.7 NNW 15 25 1018.0 - 0.0 - - - - - - -
25/10:00am 14.4 NNW 15 23 1018.0 - 0.0 - - - - - - -
25/09:50am 13.9 NNW 15 25 1017.9 - 0.0 - - - - - - -
25/09:30am 13.4 NNW 15 23 1017.8 - 0.0 - - - - - - -
25/09:00am 13.1 NW 13 23 1018.2 - 1.0 - - - - - - -
25/08:30am 13.3 NW 12 21 1018.2 - 1.0 - - - - - - -
25/08:00am 13.2 NNW 12 18 1018.1 - 1.0 - - - - - - -
25/07:30am 12.8 NW 12 21 1018.0 - 1.0 - - - - - - -
25/07:00am 12.4 NW 13 20 1018.0 - 1.0 - - - - - - -
25/06:30am 12.6 NW 12 18 1018.1 - 1.0 - - - - - - -
25/06:00am 13.1 NW 13 21 1017.9 - 1.0 - - - - - - -
25/05:30am 12.6 NNW 11 16 1017.8 - 1.0 - - - - - - -
25/05:00am 12.5 NW 11 17 1017.8 - 1.0 - - - - - - -
25/04:30am 12.4 NW 12 18 1017.9 - 1.0 - - - - - - -
25/04:00am 12.1 NNW 12 17 1017.8 - 1.0 - - - - - - -
25/03:30am 12.0 NW 10 14 1018.0 - 1.0 - - - - - - -
25/03:00am 12.2 NW 10 16 1018.0 - 0.8 - - - - - - -
25/02:30am 12.1 NW 11 17 1018.0 - 0.8 - - - - - - -
25/02:00am 11.7 NW 10 15 1018.0 - 0.8 - - - - - - -
25/01:30am 11.9 NW 11 18 1018.2 - 0.8 - - - - - - -
25/01:00am 12.0 NW 10 16 1018.4 - 0.6 - - - - - - -
25/12:30am 12.2 NW 11 17 1018.5 - 0.6 - - - - - - -
25/12:00am 12.3 NW 11 18 1018.5 - 0.6 - - - - - - -
 
Date/Time
EST
Temp
°C
Wind Pressure Rain since
9am
mm
Weather Cloud Vis
km
Sea
Height
m
Swell
Dir  Spd
kts
Gust
kts
hPa Trend Height
m
Period
s
Dir
24/11:30pm 12.8 WNW 13 19 1018.6 - 0.6 - - - - - - -
24/11:00pm 13.3 WNW 14 21 1018.5 - 0.6 - - - - - - -
24/10:30pm 13.2 WNW 14 21 1018.4 - 0.6 - - - - - - -
24/10:00pm 13.5 W 16 23 1018.5 - 0.6 - - - - - - -
24/09:30pm 13.1 W 18 24 1018.5 - 0.6 - - - - - - -
24/09:00pm 12.7 W 15 21 1018.5 - 0.6 Recent precip. - - - - - -
24/08:48pm 12.7 WNW 16 26 1018.5 - 0.6 - - - - - - -
24/08:30pm 12.7 W 16 21 1018.5 - 0.2 - - - - - - -
24/08:00pm 13.2 W 17 25 1018.5 - 0.2 - - - - - - -
24/07:45pm 13.5 W 15 26 1018.3 - 0.2 - - - - - - -
24/07:30pm 13.3 W 16 23 1018.2 - 0.2 - - - - - - -
24/07:00pm 13.8 W 15 22 1018.0 - 0.0 - - - - - - -
24/06:34pm 13.6 W 16 26 1017.7 - 0.0 - - - - - - -
24/06:30pm 13.8 W 15 22 1017.7 - 0.0 - - - - - - -
24/06:20pm 13.8 W 16 26 1017.7 - 0.0 - - - - - - -
24/06:00pm 14.1 W 17 23 1017.5 - 0.0 - - - - - - -
24/05:30pm 13.8 W 19 24 1017.2 - 0.0 - - - - - - -
24/05:00pm 14.0 W 19 26 1017.0 - 0.0 - - - - - - -
24/04:30pm 13.8 W 19 26 1016.7 - 0.0 - - - - - - -
24/04:00pm 13.8 W 17 26 1016.4 - 0.0 - - - - - - -
24/03:32pm 13.8 WNW 16 26 1016.1 - 0.0 - - - - - - -
24/03:30pm 14.0 WNW 16 24 1016.1 - 0.0 - - - - - - -
24/03:01pm 14.0 WNW 15 25 1015.7 - 0.0 - - - - - - -
24/03:00pm 14.1 WNW 15 23 1015.7 - 0.0 - - - - - - -
24/02:43pm 14.2 W 18 29 1015.5 - 0.0 - - - - - - -
24/02:30pm 13.8 W 15 21 1015.5 - 0.0 - - - - - - -
24/02:18pm 13.8 W 15 25 1015.5 - 0.0 - - - - - - -
24/02:00pm 14.4 W 17 24 1015.4 - 0.0 - - - - - - -
24/01:30pm 14.4 W 18 24 1015.3 - 0.0 - - - - - - -
24/01:00pm 14.7 W 18 25 1015.2 - 0.0 - - - - - - -
24/12:30pm 14.5 W 18 24 1015.1 - 0.0 - - - - - - -
24/12:00pm 14.3 W 19 27 1015.1 - 0.0 - - - - - - -
24/11:49am 14.0 WSW 19 29 1015.1 - 0.0 - - - - - - -
24/11:30am 14.1 W 19 27 1015.1 - 0.0 - - - - - - -
24/11:00am 13.8 W 21 32 1015.3 - 0.0 - - - - - - -
24/10:30am 14.0 W 20 31 1015.0 - 0.0 - - - - - - -
24/10:03am 13.5 W 20 30 1014.4 - 0.0 - - - - - - -
24/10:00am 13.9 W 20 27 1014.4 - 0.0 - - - - - - -
24/09:30am 13.7 W 20 28 1014.1 - 0.0 - - - - - - -
24/09:09am 13.6 W 20 30 1014.0 - 0.0 - - - - - - -
24/09:00am 13.5 W 20 27 1013.8 - 0.8 - - - - - - -
24/08:35am 12.9 W 22 32 1013.3 - 0.8 - - - - - - -
24/08:30am 12.5 W 21 28 1013.2 - 0.8 - - - - - - -
24/08:13am 13.7 W 19 29 1012.9 - 0.8 - - - - - - -
24/08:00am 13.6 W 21 29 1012.7 - 0.8 - - - - - - -
24/07:30am 13.2 W 21 31 1012.4 - 0.8 - - - - - - -
24/07:26am 13.3 W 21 31 1012.4 - 0.8 - - - - - - -
24/07:00am 12.7 W 19 28 1012.0 - 0.8 - - - - - - -
24/06:57am 12.4 WNW 18 28 1012.1 - 0.8 - - - - - - -
24/06:30am 12.3 WNW 17 25 1011.8 - 0.6 - - - - - - -
24/06:00am 11.8 NW 15 23 1011.4 - 0.4 Recent precip. - - - - - -
24/05:30am 12.0 NW 13 21 1011.2 - 0.4 - - - - - - -
24/05:00am 12.2 NW 14 22 1010.9 - 0.0 - - - - - - -

Other Formats:

Comma delimited format used in spreadsheet applications
http://www.bom.gov.au/fwo/IDT60701/IDT60701.94842.axf

JavaScript Object Notation format (JSON) in row-major order
http://www.bom.gov.au/fwo/IDT60701/IDT60701.94842.json